createdAt,value
2018-02-05T00:00:57.887Z,11.45
2018-02-05T00:03:25.518Z,11.47
2018-02-05T00:05:54.716Z,11.46
2018-02-05T00:08:26.105Z,11.45
2018-02-05T00:10:58.584Z,11.45
2018-02-05T00:13:28.403Z,11.35
2018-02-05T00:15:55.925Z,11.44
2018-02-05T00:18:23.710Z,11.43
2018-02-05T00:23:35.284Z,11.42
2018-02-05T00:26:02.814Z,11.42
2018-02-05T00:28:30.335Z,11.40
2018-02-05T00:30:57.850Z,11.39
2018-02-05T00:33:25.407Z,11.36
2018-02-05T00:35:52.956Z,11.34
2018-02-05T00:38:20.536Z,11.32
2018-02-05T00:40:48.395Z,11.30
2018-02-05T00:43:15.994Z,11.27
2018-02-05T00:45:43.536Z,11.26
2018-02-05T00:48:11.055Z,11.24
2018-02-05T00:50:38.939Z,11.20
2018-02-05T00:53:06.828Z,11.19
2018-02-05T00:55:34.472Z,11.18
2018-02-05T00:58:02.552Z,11.15
2018-02-05T01:00:30.132Z,11.10
2018-02-05T01:02:58.454Z,10.73
2018-02-05T01:05:26.021Z,11.04
2018-02-05T01:07:53.546Z,10.99
2018-02-05T01:10:21.077Z,10.94
2018-02-05T01:12:48.982Z,10.93
2018-02-05T01:15:16.782Z,10.89
2018-02-05T01:17:44.380Z,10.87
2018-02-05T01:20:12.849Z,10.85
2018-02-05T01:22:41.152Z,10.83
2018-02-05T01:25:09.593Z,10.82
2018-02-05T01:27:37.130Z,10.81
2018-02-05T01:30:06.224Z,10.80
2018-02-05T01:32:33.763Z,10.78
2018-02-05T01:35:01.302Z,10.77
2018-02-05T01:37:28.879Z,10.75
2018-02-05T01:39:56.424Z,10.74
2018-02-05T01:42:24.230Z,10.73
2018-02-05T01:44:51.764Z,10.71
2018-02-05T01:47:19.299Z,10.70
2018-02-05T01:49:46.837Z,10.69
2018-02-05T01:52:14.385Z,10.68
2018-02-05T01:54:42.248Z,10.66
2018-02-05T01:57:09.794Z,10.66
2018-02-05T01:59:37.340Z,10.66
2018-02-05T02:02:04.878Z,10.65
2018-02-05T02:04:32.951Z,10.64
2018-02-05T02:07:00.538Z,10.64
2018-02-05T02:09:28.099Z,10.63
2018-02-05T02:11:55.609Z,10.62
2018-02-05T02:14:23.142Z,10.61
2018-02-05T02:16:50.688Z,10.60
2018-02-05T02:19:18.302Z,10.58
2018-02-05T02:21:45.818Z,10.58
2018-02-05T02:24:13.337Z,10.56
2018-02-05T02:26:40.891Z,10.53
2018-02-05T02:29:08.460Z,10.52
2018-02-05T02:31:35.993Z,10.51
2018-02-05T02:34:03.536Z,10.50
2018-02-05T02:36:31.976Z,10.48
2018-02-05T02:38:59.506Z,10.46
2018-02-05T02:41:27.058Z,10.45
2018-02-05T02:43:54.588Z,10.45
2018-02-05T02:46:22.125Z,10.42
2018-02-05T02:48:49.699Z,10.42
2018-02-05T02:51:17.258Z,10.40
2018-02-05T02:53:44.827Z,10.38
2018-02-05T02:56:13.383Z,10.37
2018-02-05T02:58:40.925Z,10.35
2018-02-05T03:01:08.531Z,10.34
2018-02-05T03:03:36.121Z,10.32
2018-02-05T03:06:03.645Z,10.30
2018-02-05T03:08:31.185Z,10.29
2018-02-05T03:10:58.729Z,10.29
2018-02-05T03:13:26.296Z,10.28
2018-02-05T03:15:53.825Z,10.27
2018-02-05T03:18:21.351Z,10.26
2018-02-05T03:20:48.874Z,10.24
2018-02-05T03:23:16.437Z,10.24
2018-02-05T03:25:44.011Z,10.21
2018-02-05T03:28:11.533Z,10.20
2018-02-05T03:30:39.118Z,10.17
2018-02-05T03:33:06.667Z,10.16
2018-02-05T03:35:34.191Z,10.15
2018-02-05T03:38:01.709Z,10.01
2018-02-05T03:40:29.262Z,10.14
2018-02-05T03:42:56.855Z,10.12
2018-02-05T03:45:24.421Z,10.10
2018-02-05T03:47:51.947Z,10.08
2018-02-05T03:50:19.869Z,10.07
2018-02-05T03:52:47.426Z,10.05
2018-02-05T03:55:15.056Z,10.02
2018-02-05T03:57:42.891Z,10.00
2018-02-05T04:00:10.624Z,10.00
2018-02-05T04:02:38.170Z,9.99
2018-02-05T04:05:05.704Z,9.97
2018-02-05T04:07:33.255Z,9.96
2018-02-05T04:10:00.789Z,9.94
2018-02-05T04:12:28.458Z,9.92
2018-02-05T04:14:55.969Z,9.92
2018-02-05T04:17:23.496Z,9.91
2018-02-05T04:19:51.013Z,9.85
2018-02-05T04:22:18.548Z,9.90
2018-02-05T04:24:46.342Z,9.88
2018-02-05T04:27:13.872Z,9.86
2018-02-05T04:29:41.396Z,9.85
2018-02-05T04:32:09.171Z,9.85
2018-02-05T04:34:36.737Z,9.84
2018-02-05T04:37:04.336Z,9.82
2018-02-05T04:39:31.856Z,9.83
2018-02-05T04:41:59.406Z,9.80
2018-02-05T04:44:26.946Z,9.80
2018-02-05T04:46:54.483Z,9.79
2018-02-05T04:49:22.059Z,9.78
2018-02-05T04:51:49.577Z,9.78
2018-02-05T04:54:17.150Z,9.77
2018-02-05T04:56:44.924Z,9.76
2018-02-05T04:59:12.821Z,9.75
2018-02-05T05:01:40.469Z,9.70
2018-02-05T05:04:08.243Z,9.72
2018-02-05T05:06:35.786Z,9.73
2018-02-05T05:09:03.557Z,9.73
2018-02-05T05:11:31.319Z,9.73
2018-02-05T05:13:58.917Z,9.72
2018-02-05T05:16:27.310Z,9.70
2018-02-05T05:18:54.896Z,9.69
2018-02-05T05:21:23.280Z,9.69
2018-02-05T05:23:51.050Z,9.64
2018-02-05T05:26:18.685Z,9.69
2018-02-05T05:28:46.560Z,9.69
2018-02-05T05:31:14.166Z,9.70
2018-02-05T05:33:41.914Z,9.70
2018-02-05T05:36:09.663Z,9.71
2018-02-05T05:38:37.327Z,9.71
2018-02-05T05:41:05.258Z,10.09
2018-02-05T05:43:32.958Z,10.98
2018-02-05T05:46:00.532Z,11.52
2018-02-05T05:48:28.298Z,12.09
2018-02-05T05:50:56.076Z,12.43
2018-02-05T05:53:23.679Z,13.01
2018-02-05T05:55:51.277Z,13.66
2018-02-05T05:58:18.875Z,14.30
2018-02-05T06:00:46.466Z,14.53
2018-02-05T06:03:14.021Z,14.81
2018-02-05T06:05:41.553Z,15.08
2018-02-05T06:08:09.095Z,15.46
2018-02-05T06:10:36.635Z,15.89
2018-02-05T06:13:04.563Z,16.36
2018-02-05T06:15:32.124Z,16.95
2018-02-05T06:17:59.732Z,17.58
2018-02-05T06:20:27.315Z,18.38
2018-02-05T06:22:54.908Z,19.24
2018-02-05T06:25:22.452Z,20.06
2018-02-05T06:27:50.195Z,20.96
2018-02-05T06:30:17.762Z,21.88
2018-02-05T06:32:45.368Z,22.75
2018-02-05T06:35:13.011Z,23.59
2018-02-05T06:37:40.552Z,24.41
2018-02-05T06:40:08.106Z,25.19
2018-02-05T06:42:35.674Z,25.93
2018-02-05T06:45:04.474Z,26.66
2018-02-05T06:47:32.076Z,27.40
2018-02-05T06:49:59.613Z,28.08
2018-02-05T06:52:39.008Z,28.81
2018-02-05T06:55:18.249Z,29.61
2018-02-05T06:57:46.644Z,30.30
2018-02-05T07:00:14.505Z,31.09
2018-02-05T07:02:42.021Z,31.90
2018-02-05T07:05:09.680Z,32.64
2018-02-05T07:07:37.274Z,33.39
2018-02-05T07:10:04.811Z,34.12
2018-02-05T07:12:32.397Z,34.80
2018-02-05T07:15:01.377Z,35.50
2018-02-05T07:17:28.995Z,35.85
2018-02-05T07:19:56.558Z,36.41
2018-02-05T07:22:24.102Z,36.85
2018-02-05T07:24:51.662Z,37.46
2018-02-05T07:27:19.221Z,37.96
2018-02-05T07:29:50.892Z,38.48
2018-02-05T07:32:18.484Z,38.81
2018-02-05T07:34:46.072Z,39.17
2018-02-05T07:37:13.644Z,39.52
2018-02-05T07:39:41.190Z,39.81
2018-02-05T07:42:09.137Z,40.06
2018-02-05T07:44:36.696Z,40.45
2018-02-05T07:47:04.399Z,40.92
2018-02-05T07:49:31.983Z,41.31
2018-02-05T07:51:59.729Z,41.58
2018-02-05T07:54:27.564Z,41.89
2018-02-05T07:56:56.442Z,42.19
2018-02-05T07:59:24.124Z,42.46
2018-02-05T08:01:51.922Z,42.74
2018-02-05T08:04:19.449Z,42.78
2018-02-05T08:06:47.041Z,43.16
2018-02-05T08:09:14.942Z,43.32
2018-02-05T08:11:42.522Z,43.51
2018-02-05T08:14:10.602Z,43.70
2018-02-05T08:16:38.262Z,43.80
2018-02-05T08:19:05.960Z,44.04
2018-02-05T08:21:33.692Z,44.30
2018-02-05T08:24:01.292Z,44.61
2018-02-05T08:26:29.232Z,44.75
2018-02-05T08:28:56.833Z,45.08
2018-02-05T08:31:24.585Z,45.36
2018-02-05T08:33:52.161Z,45.63
2018-02-05T08:36:19.753Z,45.89
2018-02-05T08:38:47.400Z,46.12
2018-02-05T08:41:15.173Z,46.28
2018-02-05T08:43:42.925Z,46.43
2018-02-05T08:46:11.160Z,46.64
2018-02-05T08:48:39.411Z,46.85
2018-02-05T08:51:09.095Z,47.22
2018-02-05T08:53:37.227Z,47.39
2018-02-05T08:56:06.838Z,47.69
2018-02-05T08:58:34.442Z,47.85
2018-02-05T09:01:02.060Z,47.87
2018-02-05T09:03:29.682Z,47.91
2018-02-05T09:05:57.286Z,47.89
2018-02-05T09:08:24.901Z,48.05
2018-02-05T09:10:52.976Z,48.12
2018-02-05T09:13:21.232Z,48.11
2018-02-05T09:15:48.859Z,48.22
2018-02-05T09:18:16.502Z,48.42
2018-02-05T09:20:44.059Z,48.39
2018-02-05T09:23:11.652Z,48.50
2018-02-05T09:25:39.184Z,48.60
2018-02-05T09:28:07.932Z,48.78
2018-02-05T09:30:35.541Z,48.94
2018-02-05T09:33:03.561Z,49.26
2018-02-05T09:35:31.489Z,49.44
2018-02-05T09:38:00.166Z,49.61
2018-02-05T09:40:27.774Z,49.63
2018-02-05T09:42:57.162Z,49.71
2018-02-05T09:45:24.818Z,49.95
2018-02-05T09:47:52.445Z,50.08
2018-02-05T09:50:20.038Z,50.20
2018-02-05T09:52:47.638Z,50.20
2018-02-05T09:55:16.009Z,50.43
2018-02-05T09:57:43.610Z,50.49
2018-02-05T10:00:11.554Z,50.63
2018-02-05T10:02:39.851Z,50.72
2018-02-05T10:05:07.974Z,50.78
2018-02-05T10:07:36.071Z,50.99
2018-02-05T10:10:04.995Z,51.10
2018-02-05T10:12:33.356Z,51.15
2018-02-05T10:15:00.948Z,51.17
2018-02-05T10:20:11.528Z,51.47
2018-02-05T10:22:40.169Z,51.61
2018-02-05T10:25:08.193Z,51.70
2018-02-05T10:27:36.613Z,51.89
2018-02-05T10:30:08.210Z,51.90
2018-02-05T10:32:36.400Z,51.97
2018-02-05T10:35:05.295Z,51.99
2018-02-05T10:37:33.742Z,51.98
2018-02-05T10:40:08.150Z,51.92
2018-02-05T10:42:36.521Z,51.70
2018-02-05T10:45:05.279Z,51.18
2018-02-05T10:47:32.962Z,50.60
2018-02-05T10:50:00.800Z,49.94
2018-02-05T10:52:31.804Z,49.37
2018-02-05T10:55:21.414Z,48.76
2018-02-05T10:57:51.150Z,48.19
2018-02-05T11:00:18.802Z,47.44
2018-02-05T11:02:47.071Z,46.90
2018-02-05T11:05:14.822Z,46.24
2018-02-05T11:07:42.480Z,45.54
2018-02-05T11:10:10.444Z,44.91
2018-02-05T11:12:59.276Z,44.39
2018-02-05T11:15:27.747Z,43.97
2018-02-05T11:17:55.430Z,43.42
2018-02-05T11:20:22.959Z,42.91
2018-02-05T11:22:50.702Z,42.44
2018-02-05T11:25:19.333Z,41.89
2018-02-05T11:27:46.889Z,41.30
2018-02-05T11:30:14.546Z,40.90
2018-02-05T11:32:42.076Z,40.54
2018-02-05T11:35:09.603Z,40.17
2018-02-05T11:37:37.178Z,39.66
2018-02-05T11:40:04.918Z,39.14
2018-02-05T11:42:33.390Z,38.54
2018-02-05T11:45:01.610Z,37.94
2018-02-05T11:47:29.122Z,37.31
2018-02-05T11:49:56.638Z,36.82
2018-02-05T11:52:24.691Z,36.20
2018-02-05T11:54:52.205Z,35.56
2018-02-05T11:57:19.718Z,34.85
2018-02-05T11:59:47.304Z,34.15
2018-02-05T12:02:14.857Z,33.52
2018-02-05T12:04:42.850Z,32.82
2018-02-05T12:07:10.385Z,32.20
2018-02-05T12:09:38.420Z,31.64
2018-02-05T12:12:05.948Z,31.14
2018-02-05T12:14:33.491Z,30.73
2018-02-05T12:17:01.098Z,30.31
2018-02-05T12:19:28.785Z,29.93
2018-02-05T12:21:56.536Z,29.55
2018-02-05T12:24:24.134Z,29.06
2018-02-05T12:26:51.742Z,28.73
2018-02-05T12:29:19.263Z,28.47
2018-02-05T12:31:46.844Z,28.19
2018-02-05T12:34:14.372Z,27.84
2018-02-05T12:36:42.268Z,27.61
2018-02-05T12:39:09.822Z,27.30
2018-02-05T12:41:37.386Z,27.06
2018-02-05T12:44:05.288Z,26.73
2018-02-05T12:46:32.843Z,26.60
2018-02-05T12:49:00.389Z,26.36
2018-02-05T12:51:27.896Z,26.11
2018-02-05T12:53:55.495Z,25.84
2018-02-05T12:56:23.132Z,25.68
2018-02-05T12:58:50.762Z,25.54
2018-02-05T13:04:35.242Z,25.09
2018-02-05T13:07:02.845Z,25.04
2018-02-05T13:09:30.349Z,24.93
2018-02-05T13:11:57.909Z,24.86
2018-02-05T13:14:25.487Z,24.72
2018-02-05T13:16:53.334Z,24.61
2018-02-05T13:19:20.949Z,24.42
2018-02-05T13:21:48.741Z,24.24
2018-02-05T13:24:16.262Z,24.12
2018-02-05T13:26:43.812Z,23.93
2018-02-05T13:29:11.455Z,23.86
2018-02-05T13:31:39.025Z,23.66
2018-02-05T13:34:08.062Z,23.49
2018-02-05T13:36:35.582Z,23.42
2018-02-05T13:39:03.226Z,23.25
2018-02-05T13:41:30.761Z,23.08
2018-02-05T13:43:58.321Z,22.91
2018-02-05T13:46:25.893Z,22.78
2018-02-05T13:48:53.417Z,22.69
2018-02-05T13:51:20.995Z,22.50
2018-02-05T13:53:48.582Z,22.29
2018-02-05T13:56:16.117Z,22.09
2018-02-05T13:58:43.642Z,21.86
2018-02-05T14:01:11.347Z,21.67
2018-02-05T14:03:38.915Z,21.02
2018-02-05T14:06:06.529Z,21.11
2018-02-05T14:08:34.096Z,20.97
2018-02-05T14:11:01.626Z,20.69
2018-02-05T14:13:29.178Z,20.53
2018-02-05T14:15:56.857Z,20.24
2018-02-05T14:18:24.714Z,19.98
2018-02-05T14:20:52.247Z,19.77
2018-02-05T14:23:19.818Z,19.51
2018-02-05T14:25:47.335Z,19.27
2018-02-05T14:28:14.899Z,19.02
2018-02-05T14:30:42.494Z,18.82
2018-02-05T14:33:10.061Z,18.61
2018-02-05T14:35:37.611Z,18.44
2018-02-05T14:38:05.165Z,18.24
2018-02-05T14:40:32.805Z,18.08
2018-02-05T14:43:00.358Z,17.86
2018-02-05T14:45:27.933Z,17.69
2018-02-05T14:47:55.499Z,17.52
2018-02-05T14:50:23.400Z,17.33
2018-02-05T14:52:50.958Z,17.16
2018-02-05T14:55:18.531Z,17.00
2018-02-05T14:57:46.110Z,16.83
2018-02-05T15:00:13.758Z,16.72
2018-02-05T15:02:41.272Z,16.56
2018-02-05T15:05:09.099Z,16.36
2018-02-05T15:07:36.723Z,16.17
2018-02-05T15:10:04.257Z,15.99
2018-02-05T15:12:31.804Z,15.81
2018-02-05T15:14:59.419Z,15.65
2018-02-05T15:17:26.935Z,15.40
2018-02-05T15:19:54.449Z,15.25
2018-02-05T15:22:22.078Z,15.17
2018-02-05T15:24:49.740Z,15.07
2018-02-05T15:27:17.269Z,14.99
2018-02-05T15:29:44.813Z,14.90
2018-02-05T15:32:13.244Z,14.77
2018-02-05T15:34:40.851Z,14.61
2018-02-05T15:37:08.798Z,14.57
2018-02-05T15:39:37.186Z,14.46
2018-02-05T15:42:05.121Z,14.39
2018-02-05T15:44:32.811Z,14.26
2018-02-05T15:47:00.432Z,14.15
2018-02-05T15:49:28.013Z,14.08
2018-02-05T15:51:55.752Z,13.96
2018-02-05T15:54:23.334Z,13.92
2018-02-05T15:56:50.891Z,13.80
2018-02-05T15:59:18.700Z,13.73
2018-02-05T16:01:46.349Z,13.65
2018-02-05T16:04:13.905Z,13.58
2018-02-05T16:06:41.442Z,13.53
2018-02-05T16:09:09.246Z,13.49
2018-02-05T16:11:37.026Z,13.44
2018-02-05T16:14:04.632Z,13.30
2018-02-05T16:16:32.986Z,13.31
2018-02-05T16:19:00.632Z,13.64
2018-02-05T16:21:28.193Z,13.83
2018-02-05T16:23:55.779Z,13.88
2018-02-05T16:26:23.318Z,13.90
2018-02-05T16:28:51.436Z,14.04
2018-02-05T16:31:19.056Z,14.05
2018-02-05T16:33:46.693Z,14.04
2018-02-05T16:36:14.280Z,14.04
2018-02-05T16:38:41.991Z,14.02
2018-02-05T16:41:09.595Z,14.02
2018-02-05T16:43:37.374Z,14.00
2018-02-05T16:46:05.062Z,14.00
2018-02-05T16:48:32.689Z,13.97
2018-02-05T16:51:00.415Z,13.98
2018-02-05T16:53:28.058Z,13.97
2018-02-05T16:55:56.270Z,13.96
2018-02-05T16:58:23.838Z,13.96
2018-02-05T17:00:51.413Z,13.98
2018-02-05T17:03:18.938Z,13.97
2018-02-05T17:05:47.303Z,13.96
2018-02-05T17:08:14.968Z,13.94
2018-02-05T17:10:42.523Z,13.89
2018-02-05T17:13:10.111Z,13.93
2018-02-05T17:15:37.687Z,13.92
2018-02-05T17:18:05.241Z,14.11
2018-02-05T17:20:32.901Z,15.17
2018-02-05T17:23:00.480Z,15.36
2018-02-05T17:25:28.097Z,15.25
2018-02-05T17:27:55.702Z,15.06
2018-02-05T17:30:23.353Z,14.79
2018-02-05T17:32:50.950Z,14.75
2018-02-05T17:35:18.512Z,14.63
2018-02-05T17:37:46.158Z,14.53
2018-02-05T17:40:13.727Z,14.45
2018-02-05T17:42:41.280Z,14.36
2018-02-05T17:45:08.963Z,14.29
2018-02-05T17:47:36.513Z,14.16
2018-02-05T17:50:04.073Z,14.14
2018-02-05T17:52:31.650Z,14.08
2018-02-05T17:55:00.498Z,14.02
2018-02-05T17:57:29.141Z,13.89
2018-02-05T17:59:56.751Z,13.88
2018-02-05T18:02:24.433Z,13.83
2018-02-05T18:04:52.176Z,13.59
2018-02-05T18:07:19.709Z,13.72
2018-02-05T18:09:47.329Z,13.67
2018-02-05T18:12:14.970Z,13.63
2018-02-05T18:14:42.928Z,13.60
2018-02-05T18:17:10.505Z,13.55
2018-02-05T18:19:38.364Z,13.50
2018-02-05T18:22:05.960Z,13.47
2018-02-05T18:24:33.671Z,13.44
2018-02-05T18:27:02.044Z,13.42
2018-02-05T18:29:29.592Z,13.37
2018-02-05T18:31:57.279Z,13.35
2018-02-05T18:34:24.816Z,13.33
2018-02-05T18:36:52.649Z,13.30
2018-02-05T18:39:22.459Z,13.28
2018-02-05T18:41:50.510Z,13.25
2018-02-05T18:44:18.895Z,13.24
2018-02-05T18:46:46.473Z,13.23
2018-02-05T18:49:14.054Z,13.21
2018-02-05T18:51:41.602Z,13.21
2018-02-05T18:54:09.539Z,13.20
2018-02-05T18:56:44.906Z,13.18
2018-02-05T18:59:12.513Z,13.15
2018-02-05T19:01:40.426Z,13.14
2018-02-05T19:04:07.997Z,13.07
2018-02-05T19:06:36.462Z,13.12
2018-02-05T19:09:04.067Z,13.13
2018-02-05T19:11:31.631Z,13.11
2018-02-05T19:13:59.437Z,13.10
2018-02-05T19:16:27.058Z,13.10
2018-02-05T19:18:54.849Z,13.09
2018-02-05T19:21:22.854Z,13.09
2018-02-05T19:23:50.982Z,13.10
2018-02-05T19:26:18.593Z,13.13
2018-02-05T19:28:46.400Z,13.14
2018-02-05T19:31:14.427Z,13.15
2018-02-05T19:33:41.975Z,13.17
2018-02-05T19:36:10.221Z,13.17
2018-02-05T19:38:38.884Z,13.17
2018-02-05T19:41:06.703Z,13.18
2018-02-05T19:43:34.295Z,13.13
2018-02-05T19:46:01.953Z,13.19
2018-02-05T19:48:30.184Z,13.18
2018-02-05T19:50:57.771Z,13.16
2018-02-05T19:53:25.530Z,13.12
2018-02-05T19:55:53.338Z,13.08
2018-02-05T19:58:21.122Z,12.98
2018-02-05T20:00:48.732Z,13.01
2018-02-05T20:03:16.302Z,12.95
2018-02-05T20:05:43.848Z,12.89
2018-02-05T20:08:11.481Z,12.85
2018-02-05T20:10:39.427Z,12.82
2018-02-05T20:13:07.324Z,12.77
2018-02-05T20:15:34.942Z,12.78
2018-02-05T20:18:02.558Z,12.96
2018-02-05T20:20:30.103Z,12.95
2018-02-05T20:22:57.777Z,12.40
2018-02-05T20:25:25.383Z,12.79
2018-02-05T20:27:53.156Z,12.73
2018-02-05T20:30:20.954Z,12.66
2018-02-05T20:32:48.815Z,12.61
2018-02-05T20:35:17.329Z,12.55
2018-02-05T20:37:45.138Z,12.52
2018-02-05T20:40:14.676Z,12.43
2018-02-05T20:42:42.215Z,12.44
2018-02-05T20:45:09.817Z,12.40
2018-02-05T20:47:41.304Z,12.36
2018-02-05T20:50:15.443Z,12.32
2018-02-05T20:52:42.994Z,12.28
2018-02-05T20:55:10.556Z,12.08
2018-02-05T20:57:39.197Z,12.23
2018-02-05T21:00:07.842Z,12.21
2018-02-05T21:02:36.104Z,12.19
2018-02-05T21:05:03.665Z,12.16
2018-02-05T21:07:31.708Z,12.15
2018-02-05T21:09:59.275Z,12.14
2018-02-05T21:12:27.174Z,12.14
2018-02-05T21:14:54.880Z,12.13
2018-02-05T21:17:28.469Z,12.13
2018-02-05T21:19:56.267Z,12.14
2018-02-05T21:23:00.239Z,12.14
2018-02-05T21:25:32.648Z,12.13
2018-02-05T21:28:01.203Z,12.12
2018-02-05T21:30:28.892Z,12.11
2018-02-05T21:32:56.461Z,12.12
2018-02-05T21:35:25.836Z,12.11
2018-02-05T21:37:53.485Z,12.10
2018-02-05T21:40:22.967Z,12.09
2018-02-05T21:42:50.744Z,11.99
2018-02-05T21:45:18.418Z,12.07
2018-02-05T21:47:46.013Z,12.06
2018-02-05T21:50:13.555Z,12.03
2018-02-05T21:52:41.220Z,12.01
2018-02-05T21:55:08.988Z,11.99
2018-02-05T22:11:43.618Z,11.96
2018-02-05T22:14:11.230Z,11.91
2018-02-05T22:16:39.065Z,11.87
2018-02-05T22:19:06.883Z,11.85
2018-02-05T22:21:34.394Z,11.82
2018-02-05T22:24:01.914Z,11.70
2018-02-05T22:26:29.602Z,11.74
2018-02-05T22:28:57.144Z,11.80
2018-02-05T22:34:35.083Z,11.74
2018-02-05T22:37:02.777Z,11.78
2018-02-05T22:53:26.132Z,11.93
2018-02-05T22:55:53.713Z,11.91
2018-02-05T22:58:21.589Z,11.88
2018-02-05T23:00:49.242Z,11.88
2018-02-05T23:03:16.786Z,11.88
2018-02-05T23:05:44.320Z,11.88
2018-02-05T23:08:11.976Z,11.89
2018-02-05T23:10:39.509Z,11.88
2018-02-05T23:13:07.059Z,11.88
2018-02-05T23:15:35.430Z,11.88
2018-02-05T23:18:04.075Z,11.88
2018-02-05T23:20:33.048Z,11.87
2018-02-05T23:23:00.792Z,11.88
2018-02-05T23:25:28.962Z,11.89
2018-02-05T23:27:56.765Z,11.89
2018-02-05T23:30:24.797Z,11.89
2018-02-05T23:32:52.376Z,11.90
2018-02-05T23:35:20.007Z,11.91
2018-02-05T23:37:56.115Z,11.92
2018-02-05T23:40:24.406Z,11.93
2018-02-05T23:42:51.933Z,11.92
2018-02-05T23:45:20.624Z,11.93
2018-02-05T23:47:48.147Z,11.93
2018-02-05T23:50:17.760Z,11.95
2018-02-05T23:52:47.703Z,11.96
2018-02-05T23:55:15.465Z,11.95
2018-02-05T23:57:43.016Z,11.92
